Reykjavik, Iceland
Current Conditions -  °F | °C
As of 9:00 PM on Friday 24 Oct 2014 (Local Time) from BIRK Reporting Station
Rain Showers Rain Showers  
Wind Chill: -3°   Ceiling: 4400
Heat Index:   Visibility: 6mi
Dew Point: -1°   Wind: 16mph
Humidity: 81%   Direction: 90°E
Pressure: 29"   Gusts: NA
Location:  64.14°N, 21.92°W
Report Text: BIRK 242100Z 09014KT 9999 VCSH FEW028 SCT036 BKN044 02/M01 Q0982
Loading
Personal Weather Stations






























Interactive Weather Map
Tropical Storm Tracking
New forecast layout! Learn more

10-Day Weather Forecast

Advertisements
Track Severe Weather on mobile